Time;durP1;ratioP1;P1;durP2;ratioP2;P2;SDS_P1;SDS_P2;PMS_P1;PMS_P2;Temp;Humidity;BMP_temperature;BMP_pressure;BME280_temperature;BME280_humidity;BME280_pressure;Samples;Min_cycle;Max_cycle;Signal;HPM_P1;HPM_P2
2023/05/08 00:00:16;;;;;;;28.03;25.03;;;;;;;14.79;100.00;100450.19;5096207;27;20202;-67
2023/05/08 00:02:41;;;;;;;28.90;25.37;;;;;;;14.76;100.00;100448.63;5108685;28;20199;-68
2023/05/08 00:05:07;;;;;;;29.47;25.80;;;;;;;14.81;100.00;100445.69;5076277;28;20661;-68
2023/05/08 00:07:32;;;;;;;28.27;25.20;;;;;;;14.87;100.00;100445.28;5076508;28;20211;-68
2023/05/08 00:09:57;;;;;;;27.23;24.50;;;;;;;14.75;100.00;100449.56;5075037;28;20219;-68
2023/05/08 00:12:23;;;;;;;27.40;24.43;;;;;;;14.79;100.00;100447.59;5100670;27;20298;-68
2023/05/08 00:14:48;;;;;;;28.20;25.33;;;;;;;14.88;100.00;100443.56;5093563;28;20233;-67
2023/05/08 00:17:13;;;;;;;24.80;22.27;;;;;;;14.72;100.00;100447.16;5093797;28;20172;-68
2023/05/08 00:19:39;;;;;;;23.90;21.70;;;;;;;14.51;100.00;100445.03;5108074;28;20199;-68
2023/05/08 00:22:04;;;;;;;24.17;21.67;;;;;;;14.52;100.00;100446.69;5119476;27;20246;-67
2023/05/08 00:24:29;;;;;;;25.97;23.47;;;;;;;14.50;100.00;100439.97;5114705;28;20695;-67
2023/05/08 00:26:55;;;;;;;23.00;20.60;;;;;;;14.38;100.00;100436.41;5113934;28;20176;-67
2023/05/08 00:29:20;;;;;;;21.40;19.23;;;;;;;14.34;100.00;100453.88;5114197;28;20176;-67
2023/05/08 00:31:45;;;;;;;20.83;18.67;;;;;;;14.33;100.00;100441.88;5117343;27;20760;-67
2023/05/08 00:34:10;;;;;;;22.27;19.37;;;;;;;14.27;100.00;100447.44;5104866;27;20187;-68
2023/05/08 00:36:36;;;;;;;19.63;17.73;;;;;;;14.18;100.00;100453.22;5096036;28;20200;-67
2023/05/08 00:39:01;;;;;;;19.83;17.93;;;;;;;14.29;100.00;100449.94;5113676;28;20179;-67
2023/05/08 00:41:26;;;;;;;20.10;17.87;;;;;;;14.26;100.00;100447.56;5106777;27;20232;-67
2023/05/08 00:43:51;;;;;;;18.10;16.40;;;;;;;14.23;100.00;100446.00;5115081;27;20544;-67
2023/05/08 00:46:17;;;;;;;19.63;17.63;;;;;;;14.23;100.00;100453.75;5094838;28;20182;-67
2023/05/08 00:48:43;;;;;;;19.20;17.37;;;;;;;14.26;100.00;100453.53;5113377;28;20180;-68
2023/05/08 00:51:10;;;;;;;18.60;16.60;;;;;;;14.31;100.00;100455.84;5111944;27;20275;-67
2023/05/08 00:53:38;;;;;;;17.53;15.70;;;;;;;14.30;100.00;100451.59;5119643;27;20699;-67
2023/05/08 00:56:04;;;;;;;17.33;15.63;;;;;;;14.20;100.00;100457.38;5112626;28;20182;-67
2023/05/08 00:58:31;;;;;;;17.33;15.63;;;;;;;14.12;100.00;100457.03;5113791;28;20191;-67
2023/05/08 01:00:57;;;;;;;16.30;14.60;;;;;;;14.16;100.00;100455.06;5109646;27;20282;-67
2023/05/08 01:03:23;;;;;;;16.13;14.47;;;;;;;14.05;100.00;100450.56;5122699;27;20191;-67
2023/05/08 01:05:49;;;;;;;14.60;13.23;;;;;;;14.06;100.00;100456.59;5113060;28;20183;-67
2023/05/08 01:08:14;;;;;;;15.43;13.93;;;;;;;14.03;100.00;100455.03;5112801;28;20188;-66
2023/05/08 01:11:18;;;;;;;15.50;14.03;;;;;;;13.90;100.00;100454.97;5106793;27;20237;-66
2023/05/08 01:13:50;;;;;;;15.23;13.93;;;;;;;13.94;100.00;100458.19;5094848;28;20175;-66
2023/05/08 01:16:31;;;;;;;14.97;13.67;;;;;;;14.00;100.00;100458.66;5112150;28;20274;-66
2023/05/08 01:19:21;;;;;;;14.57;13.17;;;;;;;14.05;100.00;100463.50;5078278;28;20176;-67
2023/05/08 01:22:06;;;;;;;14.93;13.40;;;;;;;14.14;100.00;100455.19;5112731;27;20626;-66
2023/05/08 01:24:46;;;;;;;15.10;13.80;;;;;;;14.22;100.00;100461.63;5095316;28;20183;-66
2023/05/08 01:27:41;;;;;;;14.93;13.63;;;;;;;14.13;100.00;100452.69;5112202;28;20179;-66
2023/05/08 01:30:36;;;;;;;15.07;13.50;;;;;;;14.00;100.00;100450.88;5101179;28;20179;-66
2023/05/08 01:33:10;;;;;;;13.93;12.50;;;;;;;13.81;100.00;100460.72;5096663;27;20184;-66
2023/05/08 01:35:45;;;;;;;13.73;12.43;;;;;;;13.79;100.00;100462.56;5090373;28;20171;-66
2023/05/08 01:39:04;;;;;;;15.07;13.53;;;;;;;13.68;100.00;100468.38;5094398;28;20174;-66
2023/05/08 01:41:34;;;;;;;13.47;12.23;;;;;;;13.60;100.00;100463.69;5005884;28;20411;-66
2023/05/08 01:44:09;;;;;;;13.70;12.47;;;;;;;13.54;100.00;100464.06;5079737;28;20605;-66
2023/05/08 01:46:35;;;;;;;13.40;12.13;;;;;;;13.48;100.00;100472.22;5108801;28;20191;-66
2023/05/08 01:49:24;;;;;;;13.57;12.43;;;;;;;13.40;100.00;100465.75;5094705;28;20249;-66
2023/05/08 01:51:57;;;;;;;12.73;11.63;;;;;;;13.32;100.00;100472.25;5092746;27;20221;-66
2023/05/08 01:54:27;;;;;;;14.10;12.77;;;;;;;13.33;100.00;100476.53;5102805;28;20175;-66
2023/05/08 01:56:55;;;;;;;14.07;12.67;;;;;;;13.43;100.00;100472.47;5105531;28;20179;-66
2023/05/08 01:59:22;;;;;;;13.47;12.37;;;;;;;13.43;100.00;100475.06;5078658;28;20186;-66
2023/05/08 02:01:51;;;;;;;13.30;12.07;;;;;;;13.36;100.00;100473.75;5095364;27;20224;-66
2023/05/08 02:04:18;;;;;;;13.93;12.63;;;;;;;13.43;100.00;100474.25;5101139;28;20214;-66
2023/05/08 02:06:44;;;;;;;13.17;11.90;;;;;;;13.48;100.00;100477.38;5111190;28;20187;-66
2023/05/08 02:09:11;;;;;;;13.67;12.43;;;;;;;13.43;100.00;100474.25;5086467;28;20213;-66
2023/05/08 02:11:39;;;;;;;12.27;11.27;;;;;;;13.28;100.00;100483.72;5089783;27;20245;-66
2023/05/08 02:14:07;;;;;;;13.93;12.73;;;;;;;13.20;100.00;100476.44;5114208;27;20179;-67
2023/05/08 02:16:34;;;;;;;14.23;12.83;;;;;;;13.21;100.00;100478.09;5092398;28;20231;-66
2023/05/08 02:19:01;;;;;;;14.53;11.73;;;;;;;13.27;100.00;100482.06;5111296;28;20198;-66
2023/05/08 02:21:29;;;;;;;13.20;12.10;;;;;;;13.28;100.00;100486.31;5093279;27;20295;-66
2023/05/08 02:23:56;;;;;;;14.07;12.83;;;;;;;13.24;100.00;100483.88;5116212;27;20199;-66
2023/05/08 02:26:23;;;;;;;14.77;13.27;;;;;;;13.16;100.00;100480.09;5109381;28;20622;-67
2023/05/08 02:28:51;;;;;;;13.43;12.03;;;;;;;13.04;100.00;100479.91;5094093;28;20202;-66
2023/05/08 02:31:18;;;;;;;13.50;12.33;;;;;;;13.03;100.00;100486.00;5110763;27;20223;-67
2023/05/08 02:33:44;;;;;;;13.87;12.67;;;;;;;13.01;100.00;100485.28;5104078;28;20176;-66
2023/05/08 02:36:12;;;;;;;14.87;12.63;;;;;;;12.98;100.00;100482.03;5107503;28;21017;-67
2023/05/08 02:38:40;;;;;;;13.57;12.27;;;;;;;12.98;100.00;100493.19;5111537;28;20525;-67
2023/05/08 02:41:07;;;;;;;13.03;11.93;;;;;;;13.08;100.00;100494.31;5108267;27;20730;-66
2023/05/08 02:43:33;;;;;;;13.70;12.50;;;;;;;13.05;100.00;100496.25;5119473;28;20179;-66
2023/05/08 02:46:19;;;;;;;13.50;12.20;;;;;;;12.92;100.00;100498.69;5110395;28;20180;-67
2023/05/08 02:48:58;;;;;;;13.90;12.70;;;;;;;12.94;100.00;100496.88;5111712;28;20264;-67
2023/05/08 02:51:26;;;;;;;13.63;12.40;;;;;;;13.04;100.00;100492.81;5103339;27;20219;-66
2023/05/08 02:53:57;;;;;;;13.10;12.00;;;;;;;13.00;100.00;100495.66;5078859;28;20603;-68
2023/05/08 02:56:35;;;;;;;12.97;11.87;;;;;;;12.96;100.00;100491.59;5092595;28;20634;-67
2023/05/08 02:59:15;;;;;;;13.10;11.90;;;;;;;12.87;100.00;100496.38;5111019;28;20183;-67
2023/05/08 03:01:45;;;;;;;11.90;10.47;;;;;;;12.90;100.00;100496.22;5077256;27;20215;-68
2023/05/08 03:04:18;;;;;;;11.63;10.63;;;;;;;13.03;100.00;100495.50;5080290;28;20987;-68
2023/05/08 03:06:47;;;;;;;11.83;10.83;;;;;;;13.13;100.00;100488.03;5091776;28;20180;-67
2023/05/08 03:09:19;;;;;;;12.60;11.60;;;;;;;12.99;100.00;100494.84;5092092;28;20661;-68
2023/05/08 03:11:48;;;;;;;10.93;10.00;;;;;;;13.02;100.00;100489.53;5078345;28;20247;-68
2023/05/08 03:14:18;;;;;;;11.23;10.27;;;;;;;13.00;100.00;100486.19;5093253;28;20180;-68
2023/05/08 03:16:46;;;;;;;11.93;10.83;;;;;;;13.10;100.00;100488.22;5077004;28;20664;-69
2023/05/08 03:19:33;;;;;;;11.70;10.70;;;;;;;13.03;100.00;100492.91;5094410;28;20179;-69
2023/05/08 03:22:01;;;;;;;10.57;9.50;;;;;;;13.10;100.00;100494.22;5097358;28;20269;-68
2023/05/08 03:24:28;;;;;;;11.17;10.03;;;;;;;13.21;100.00;100502.16;5092481;28;20671;-67
2023/05/08 03:26:55;;;;;;;11.83;10.27;;;;;;;13.20;100.00;100497.91;5091236;28;20180;-70
2023/05/08 03:29:22;;;;;;;11.30;10.20;;;;;;;13.28;100.00;100499.22;5092518;28;20642;-69
2023/05/08 03:31:50;;;;;;;11.07;10.17;;;;;;;13.30;100.00;100497.38;5056394;28;20234;-69
2023/05/08 03:34:18;;;;;;;11.63;10.63;;;;;;;13.26;100.00;100506.22;5075753;28;20551;-69
2023/05/08 03:36:44;;;;;;;10.70;9.80;;;;;;;13.31;100.00;100504.19;5092613;28;20176;-68
2023/05/08 03:39:10;;;;;;;10.73;9.63;;;;;;;13.15;100.00;100496.53;5093396;28;20590;-69
2023/05/08 03:41:35;;;;;;;10.17;9.10;;;;;;;13.16;100.00;100493.88;5094680;28;20227;-69
2023/05/08 03:44:02;;;;;;;11.37;10.03;;;;;;;13.03;100.00;100491.16;5099682;28;20638;-68
2023/05/08 03:46:30;;;;;;;9.70;9.00;;;;;;;13.08;100.00;100493.47;5096440;28;20194;-69
2023/05/08 03:48:59;;;;;;;10.30;9.23;;;;;;;13.06;100.00;100497.88;5114617;28;20171;-70
2023/05/08 03:51:24;;;;;;;9.47;8.67;;;;;;;12.99;100.00;100499.19;5097314;27;20234;-70
2023/05/08 03:53:50;;;;;;;9.20;8.50;;;;;;;13.12;100.00;100501.88;5099784;28;20179;-70
2023/05/08 03:56:16;;;;;;;10.00;9.10;;;;;;;13.06;100.00;100492.72;5102387;28;20175;-70
2023/05/08 03:58:53;;;;;;;9.40;8.47;;;;;;;13.10;100.00;100495.97;5100040;28;20183;-70
2023/05/08 04:01:31;;;;;;;8.43;7.83;;;;;;;13.05;100.00;100494.50;5103896;27;20226;-69
2023/05/08 04:04:10;;;;;;;9.10;8.40;;;;;;;13.02;100.00;100491.25;5100558;28;20204;-70
2023/05/08 04:07:09;;;;;;;10.40;9.13;;;;;;;13.00;100.00;100493.09;5114932;28;20182;-70
2023/05/08 04:09:42;;;;;;;9.10;8.27;;;;;;;13.02;100.00;100492.09;5087911;28;20198;-70
2023/05/08 04:12:16;;;;;;;10.00;8.97;;;;;;;13.00;100.00;100498.25;5076294;27;20258;-69
2023/05/08 04:14:47;;;;;;;9.13;8.13;;;;;;;12.95;100.00;100485.63;5075151;28;20188;-69
2023/05/08 04:17:16;;;;;;;8.47;7.77;;;;;;;12.86;100.00;100488.72;5070548;28;20181;-69
2023/05/08 04:19:45;;;;;;;9.97;8.10;;;;;;;12.82;100.00;100498.41;5072215;28;20181;-70
2023/05/08 04:22:11;;;;;;;9.23;8.43;;;;;;;12.91;100.00;100503.03;5103201;27;20259;-69
2023/05/08 04:24:41;;;;;;;9.03;8.23;;;;;;;12.77;100.00;100500.41;5098768;28;20207;-69
2023/05/08 04:27:08;;;;;;;9.50;8.70;;;;;;;12.76;100.00;100503.91;5096828;28;20191;-70
2023/05/08 04:29:34;;;;;;;9.23;8.33;;;;;;;12.75;100.00;100504.81;5115094;27;20176;-68
2023/05/08 04:32:00;;;;;;;8.30;7.60;;;;;;;12.70;100.00;100505.13;5102130;27;21021;-69
2023/05/08 04:34:25;;;;;;;7.83;7.23;;;;;;;12.68;100.00;100504.34;5094914;28;20191;-68
2023/05/08 04:36:51;;;;;;;9.53;8.50;;;;;;;12.70;100.00;100505.13;5094588;28;20272;-67
2023/05/08 04:39:17;;;;;;;8.80;8.00;;;;;;;12.77;100.00;100505.56;5100355;28;20244;-68
2023/05/08 04:41:42;;;;;;;8.13;7.47;;;;;;;12.80;100.00;100502.00;5116977;27;20292;-68
2023/05/08 04:44:07;;;;;;;9.03;8.03;;;;;;;12.79;100.00;100505.47;5099831;27;20172;-69
2023/05/08 04:46:32;;;;;;;9.60;8.70;;;;;;;12.84;100.00;100509.47;5093679;28;20180;-68
2023/05/08 04:48:58;;;;;;;8.53;7.83;;;;;;;12.87;100.00;100518.78;5093743;28;20180;-68
2023/05/08 04:51:23;;;;;;;8.93;8.23;;;;;;;13.07;100.00;100509.88;5094435;27;20219;-69
2023/05/08 04:53:48;;;;;;;9.17;8.37;;;;;;;13.03;100.00;100516.97;5099952;27;20168;-69
2023/05/08 04:56:13;;;;;;;8.47;7.77;;;;;;;13.00;100.00;100519.75;5100577;28;20191;-69
2023/05/08 04:58:39;;;;;;;9.03;8.23;;;;;;;13.06;100.00;100516.81;5099554;28;20182;-68
2023/05/08 05:01:04;;;;;;;8.57;7.87;;;;;;;13.01;100.00;100520.56;5088574;28;20792;-68
2023/05/08 05:03:30;;;;;;;8.97;8.27;;;;;;;12.97;100.00;100529.44;5084042;28;20655;-67
2023/05/08 05:06:00;;;;;;;8.90;8.20;;;;;;;12.84;100.00;100530.13;5093162;28;20183;-67
2023/05/08 05:08:25;;;;;;;8.73;7.93;;;;;;;12.72;100.00;100529.06;5074468;28;20199;-68
2023/05/08 05:10:51;;;;;;;8.97;8.17;;;;;;;12.69;100.00;100539.56;5089334;28;20254;-68
2023/05/08 05:13:17;;;;;;;9.37;8.40;;;;;;;12.72;100.00;100538.56;5084443;28;20184;-68
2023/05/08 05:15:42;;;;;;;8.90;8.00;;;;;;;12.72;100.00;100538.56;5093220;28;20599;-69
2023/05/08 05:18:07;;;;;;;8.63;7.93;;;;;;;12.75;100.00;100546.13;5093853;28;20184;-69
2023/05/08 05:20:32;;;;;;;9.57;8.67;;;;;;;12.84;100.00;100547.38;5087186;28;20231;-68
2023/05/08 05:22:58;;;;;;;8.93;8.23;;;;;;;12.73;100.00;100550.56;5105692;27;20627;-69
2023/05/08 05:25:23;;;;;;;9.63;8.70;;;;;;;12.58;100.00;100563.41;5092248;28;20547;-68
2023/05/08 05:27:48;;;;;;;10.53;9.27;;;;;;;12.43;100.00;100562.50;5095104;28;20183;-67
2023/05/08 05:30:14;;;;;;;11.10;10.07;;;;;;;12.24;100.00;100565.25;5066859;28;20620;-69
2023/05/08 05:32:39;;;;;;;10.87;10.00;;;;;;;11.95;100.00;100574.50;5108467;27;20218;-70
2023/05/08 05:35:05;;;;;;;11.77;10.67;;;;;;;11.87;100.00;100580.09;5093755;28;20338;-68
2023/05/08 05:37:30;;;;;;;11.70;10.50;;;;;;;11.90;100.00;100581.66;5096191;28;20188;-68
2023/05/08 05:39:55;;;;;;;11.37;10.43;;;;;;;11.85;100.00;100584.47;5111427;28;20229;-67
2023/05/08 05:42:20;;;;;;;11.47;10.57;;;;;;;11.77;100.00;100582.31;5104148;27;20681;-67
2023/05/08 05:44:46;;;;;;;12.17;11.17;;;;;;;11.76;100.00;100578.06;5108356;28;20179;-67
2023/05/08 05:47:11;;;;;;;12.30;11.03;;;;;;;11.85;100.00;100581.91;5097548;28;20575;-67
2023/05/08 05:49:38;;;;;;;12.20;11.03;;;;;;;11.78;100.00;100577.97;5092548;28;20187;-67
2023/05/08 05:52:03;;;;;;;11.67;10.77;;;;;;;11.87;100.00;100585.22;5097551;28;20700;-67
2023/05/08 05:54:28;;;;;;;12.40;11.30;;;;;;;11.81;100.00;100588.13;5095094;28;20176;-67
2023/05/08 05:56:54;;;;;;;13.07;11.80;;;;;;;11.85;100.00;100588.81;5112131;28;20175;-67
2023/05/08 05:59:19;;;;;;;13.27;12.07;;;;;;;11.89;100.00;100587.72;5104583;28;20184;-67
2023/05/08 06:01:44;;;;;;;12.77;11.57;;;;;;;12.05;100.00;100590.38;5104047;27;20273;-67
2023/05/08 06:04:09;;;;;;;13.13;11.97;;;;;;;12.07;100.00;100588.53;5098462;27;20526;-69
2023/05/08 06:06:35;;;;;;;11.63;10.67;;;;;;;12.04;100.00;100591.28;5100466;28;20236;-68
2023/05/08 06:09:00;;;;;;;12.37;11.10;;;;;;;12.05;100.00;100588.59;5078259;28;20182;-67
2023/05/08 06:11:25;;;;;;;11.63;10.73;;;;;;;12.15;100.00;100588.13;5104518;27;20231;-68
2023/05/08 06:13:50;;;;;;;15.27;10.50;;;;;;;12.03;100.00;100587.88;5101030;27;20172;-66
2023/05/08 06:16:16;;;;;;;14.07;12.63;;;;;;;12.18;100.00;100593.13;5111355;28;20627;-67
2023/05/08 06:18:41;;;;;;;11.77;10.77;;;;;;;12.20;100.00;100589.53;5112213;28;20179;-67
2023/05/08 06:21:06;;;;;;;12.37;11.07;;;;;;;12.13;100.00;100602.84;5108242;27;20592;-67
2023/05/08 06:23:32;;;;;;;12.07;11.07;;;;;;;12.16;100.00;100595.78;5117969;27;20180;-67
2023/05/08 06:25:57;;;;;;;12.10;10.40;;;;;;;12.21;100.00;100592.97;5108646;28;20634;-68
2023/05/08 06:28:24;;;;;;;12.07;10.53;;;;;;;12.21;100.00;100604.09;5098577;28;20241;-68
2023/05/08 06:30:50;;;;;;;11.37;10.47;;;;;;;12.25;100.00;100603.03;5100694;27;20603;-68
2023/05/08 06:33:15;;;;;;;11.40;10.17;;;;;;;12.31;100.00;100599.28;5097769;28;20198;-68
2023/05/08 06:35:40;;;;;;;10.67;9.80;;;;;;;12.33;100.00;100597.47;5103845;28;20279;-68
2023/05/08 06:38:06;;;;;;;10.87;10.07;;;;;;;12.45;100.00;100598.53;5102137;28;21585;-68
2023/05/08 06:40:31;;;;;;;10.97;10.00;;;;;;;12.55;100.00;100596.28;5092724;27;20370;-67
2023/05/08 06:42:56;;;;;;;10.23;9.37;;;;;;;12.55;100.00;100597.13;5113316;28;20207;-66
2023/05/08 06:45:21;;;;;;;10.37;9.53;;;;;;;12.65;100.00;100600.03;5108053;28;20187;-66
2023/05/08 06:47:46;;;;;;;11.73;9.80;;;;;;;12.71;100.00;100594.53;5108411;28;20229;-66
2023/05/08 06:50:12;;;;;;;9.83;9.03;;;;;;;12.69;100.00;100590.34;5087291;28;20187;-65
2023/05/08 06:52:37;;;;;;;9.33;8.43;;;;;;;12.77;100.00;100589.94;5090173;28;20273;-67
2023/05/08 06:55:03;;;;;;;9.10;8.40;;;;;;;12.88;100.00;100593.56;5071668;28;20176;-67
2023/05/08 06:57:29;;;;;;;9.03;8.23;;;;;;;12.84;100.00;100589.50;5107769;28;20266;-68
2023/05/08 06:59:55;;;;;;;9.30;8.40;;;;;;;12.85;100.00;100590.31;5093370;28;20224;-68
2023/05/08 07:02:20;;;;;;;10.07;8.90;;;;;;;12.93;100.00;100593.31;5074488;28;20223;-68
2023/05/08 07:04:45;;;;;;;10.27;9.30;;;;;;;12.80;100.00;100589.75;5111286;28;20187;-67
2023/05/08 07:07:12;;;;;;;9.73;8.83;;;;;;;12.98;100.00;100595.66;5107262;28;20183;-68
2023/05/08 07:09:38;;;;;;;10.47;9.67;;;;;;;12.94;100.00;100597.56;5103629;28;20190;-68
2023/05/08 07:12:03;;;;;;;9.80;8.90;;;;;;;13.04;100.00;100597.88;5083354;28;20216;-69
2023/05/08 07:14:28;;;;;;;9.17;8.47;;;;;;;13.00;100.00;100604.13;5064935;28;20580;-68
2023/05/08 07:16:54;;;;;;;9.33;8.53;;;;;;;12.97;100.00;100597.38;5093179;28;20220;-66
2023/05/08 07:19:19;;;;;;;9.53;8.67;;;;;;;12.81;100.00;100594.81;5086029;28;20259;-68
2023/05/08 07:21:45;;;;;;;10.30;9.40;;;;;;;12.72;100.00;100603.91;5079813;28;20230;-67
2023/05/08 07:24:10;;;;;;;10.30;9.40;;;;;;;12.78;100.00;100600.19;5096555;28;20290;-68
2023/05/08 07:26:36;;;;;;;9.47;8.67;;;;;;;12.89;100.00;100602.16;5068643;28;20643;-68
2023/05/08 07:29:01;;;;;;;9.67;8.80;;;;;;;12.95;100.00;100598.38;5098425;28;20542;-69
2023/05/08 07:31:27;;;;;;;10.07;9.10;;;;;;;13.23;100.00;100598.50;5072378;27;20306;-68
2023/05/08 07:33:52;;;;;;;10.20;9.30;;;;;;;13.17;100.00;100596.28;5109133;28;20176;-68
2023/05/08 07:36:17;;;;;;;10.83;9.03;;;;;;;13.12;100.00;100602.59;5097565;28;20270;-67
2023/05/08 07:38:43;;;;;;;12.20;11.20;;;;;;;12.85;100.00;100593.75;5113027;28;20176;-68
2023/05/08 07:41:08;;;;;;;13.67;10.53;;;;;;;12.97;100.00;100596.56;5105717;27;20237;-68
2023/05/08 07:43:33;;;;;;;10.63;9.73;;;;;;;13.15;100.00;100603.25;5098616;28;20179;-68
2023/05/08 07:45:59;;;;;;;11.00;9.90;;;;;;;13.08;100.00;100599.38;5112814;28;20207;-67
2023/05/08 07:48:24;;;;;;;10.53;9.53;;;;;;;13.20;100.00;100605.59;5096560;28;20180;-68
2023/05/08 07:50:50;;;;;;;9.70;8.80;;;;;;;13.30;100.00;100608.47;5099617;27;20272;-70
2023/05/08 07:53:15;;;;;;;10.33;9.27;;;;;;;13.69;100.00;100597.59;5091672;28;20232;-68
2023/05/08 07:55:41;;;;;;;10.63;9.73;;;;;;;13.91;100.00;100598.84;5102522;28;20300;-69
2023/05/08 07:58:06;;;;;;;9.13;8.33;;;;;;;14.10;100.00;100587.38;5103545;28;20681;-69
2023/05/08 08:00:32;;;;;;;9.27;8.53;;;;;;;14.06;100.00;100584.16;5099748;28;20291;-69
2023/05/08 08:02:57;;;;;;;9.50;8.60;;;;;;;14.25;100.00;100590.78;5093395;28;20286;-69
2023/05/08 08:05:23;;;;;;;10.53;8.33;;;;;;;14.43;100.00;100588.81;5109787;28;20362;-71
2023/05/08 08:07:48;;;;;;;10.83;8.93;;;;;;;14.65;100.00;100594.31;5111959;28;20172;-70
2023/05/08 08:10:13;;;;;;;8.37;7.67;;;;;;;14.63;100.00;100596.13;5085494;27;20362;-81
2023/05/08 08:12:39;;;;;;;9.03;8.33;;;;;;;14.92;100.00;100601.25;5102930;28;20175;-61
2023/05/08 08:15:04;;;;;;;8.77;7.70;;;;;;;14.92;100.00;100597.81;5102886;28;20638;-61
2023/05/08 08:17:30;;;;;;;8.93;8.20;;;;;;;15.19;100.00;100599.53;5080178;28;20180;-61
2023/05/08 08:19:55;;;;;;;8.60;7.87;;;;;;;15.45;100.00;100595.19;5103453;28;20229;-61
2023/05/08 08:22:21;;;;;;;9.17;8.27;;;;;;;15.19;100.00;100596.94;5110687;27;20618;-61
2023/05/08 08:24:46;;;;;;;8.43;7.73;;;;;;;15.25;100.00;100602.53;5103067;28;20232;-62
2023/05/08 08:27:12;;;;;;;8.60;7.90;;;;;;;15.14;100.00;100592.91;5103151;28;20207;-61
2023/05/08 08:29:37;;;;;;;8.40;7.70;;;;;;;15.40;100.00;100594.69;5099171;28;20188;-61
2023/05/08 08:32:02;;;;;;;11.10;8.53;;;;;;;15.49;100.00;100597.50;5116976;27;20253;-62
2023/05/08 08:34:28;;;;;;;9.20;8.40;;;;;;;15.46;100.00;100602.88;5111942;27;20233;-62
2023/05/08 08:36:53;;;;;;;11.27;8.70;;;;;;;15.61;100.00;100592.41;5077698;28;20661;-62
2023/05/08 08:39:19;;;;;;;11.57;9.53;;;;;;;15.69;100.00;100600.50;5103148;28;20193;-62
2023/05/08 08:41:44;;;;;;;8.90;8.10;;;;;;;15.86;100.00;100603.72;5107632;27;20229;-62
2023/05/08 08:44:10;;;;;;;15.77;9.47;;;;;;;15.81;100.00;100598.81;5079066;28;20608;-61
2023/05/08 08:46:42;;;;;;;12.37;8.63;;;;;;;16.06;100.00;100605.78;5087067;28;20298;-61
2023/05/08 08:49:10;;;;;;;9.57;8.63;;;;;;;15.62;100.00;100602.66;5104208;28;20183;-73
2023/05/08 08:51:44;;;;;;;9.67;8.57;;;;;;;15.24;100.00;100608.66;5106765;27;20230;-73
2023/05/08 08:54:19;;;;;;;9.33;8.43;;;;;;;14.98;100.00;100605.19;5111441;27;20179;-74
2023/05/08 08:56:48;;;;;;;9.47;8.53;;;;;;;15.07;100.00;100609.78;5111285;28;20182;-74
2023/05/08 08:59:15;;;;;;;9.80;8.37;;;;;;;15.29;100.00;100611.78;5102167;28;20522;-74
2023/05/08 09:01:44;;;;;;;8.67;7.87;;;;;;;15.32;100.00;100615.94;5072428;28;20330;-74
2023/05/08 09:04:10;;;;;;;9.47;8.67;;;;;;;15.44;100.00;100619.47;5095250;28;20175;-73
2023/05/08 09:06:36;;;;;;;9.73;8.93;;;;;;;15.19;100.00;100626.25;5112736;28;20199;-73
2023/05/08 09:09:03;;;;;;;10.10;9.20;;;;;;;15.14;100.00;100626.59;5112731;28;20175;-72
2023/05/08 09:11:28;;;;;;;9.93;8.97;;;;;;;14.73;100.00;100624.06;5112926;27;20313;-73
2023/05/08 09:13:54;;;;;;;10.77;9.73;;;;;;;14.60;100.00;100622.22;5117596;27;20228;-73
2023/05/08 09:16:20;;;;;;;9.50;8.80;;;;;;;14.71;100.00;100618.16;5128129;27;20243;-73
2023/05/08 09:18:45;;;;;;;12.13;10.00;;;;;;;14.74;100.00;100628.34;5111730;28;20692;-72
2023/05/08 09:21:11;;;;;;;11.10;10.17;;;;;;;14.69;100.00;100631.19;5110765;27;20254;-72
2023/05/08 09:23:53;;;;;;;9.73;8.93;;;;;;;14.70;100.00;100627.69;5094220;28;20176;-73
2023/05/08 09:26:32;;;;;;;10.57;9.47;;;;;;;14.73;100.00;100634.44;5093010;28;20176;-72
2023/05/08 09:29:09;;;;;;;10.40;9.47;;;;;;;14.88;100.00;100632.63;5096018;28;20297;-73
2023/05/08 09:31:39;;;;;;;11.17;10.17;;;;;;;14.90;100.00;100628.19;5091268;27;20242;-71
2023/05/08 09:34:08;;;;;;;10.97;10.07;;;;;;;14.96;100.00;100625.19;5101589;28;20203;-74
2023/05/08 09:36:35;;;;;;;11.23;10.17;;;;;;;14.87;100.00;100636.13;5093933;28;20638;-72
2023/05/08 09:39:01;;;;;;;11.40;9.97;;;;;;;14.85;100.00;100631.06;5097443;28;20213;-71
2023/05/08 09:41:27;;;;;;;13.33;10.17;;;;;;;14.80;100.00;100635.72;5100834;27;20741;-72
2023/05/08 09:44:03;;;;;;;11.47;10.30;;;;;;;15.03;100.00;100634.22;5089042;28;20267;-72
2023/05/08 09:46:29;;;;;;;10.47;9.57;;;;;;;15.19;100.00;100638.41;5093024;28;20185;-72
2023/05/08 09:48:56;;;;;;;12.17;11.07;;;;;;;15.26;100.00;100637.06;5101896;28;20763;-69
2023/05/08 09:51:23;;;;;;;12.00;10.90;;;;;;;15.26;100.00;100631.91;5107083;27;20301;-72
2023/05/08 09:53:51;;;;;;;11.00;10.00;;;;;;;15.08;100.00;100634.75;5110384;27;20195;-73
2023/05/08 09:56:36;;;;;;;11.50;10.33;;;;;;;15.54;100.00;100641.28;5094024;28;20191;-71
2023/05/08 09:59:22;;;;;;;11.57;10.47;;;;;;;15.73;100.00;100637.44;5073610;28;20548;-72
2023/05/08 10:01:50;;;;;;;11.67;10.60;;;;;;;15.93;100.00;100636.91;5078176;28;20227;-73
2023/05/08 10:04:15;;;;;;;11.27;10.37;;;;;;;15.80;100.00;100633.47;5070209;28;20188;-73
2023/05/08 10:06:40;;;;;;;12.57;11.30;;;;;;;16.00;100.00;100639.94;5095980;28;20287;-72
2023/05/08 10:09:07;;;;;;;11.90;10.87;;;;;;;16.03;100.00;100637.13;5112336;28;20184;-72
2023/05/08 10:11:32;;;;;;;11.13;10.13;;;;;;;16.01;100.00;100638.16;5085545;28;20265;-72
2023/05/08 10:13:58;;;;;;;11.33;10.33;;;;;;;15.80;100.00;100638.66;5093030;28;20188;-73
2023/05/08 10:16:27;;;;;;;11.67;10.67;;;;;;;15.69;100.00;100634.22;5110494;28;20182;-73
2023/05/08 10:18:57;;;;;;;10.80;9.90;;;;;;;16.00;100.00;100634.75;5112472;28;20179;-71
2023/05/08 10:21:27;;;;;;;12.10;10.47;;;;;;;15.81;100.00;100629.94;5090113;27;20242;-71
2023/05/08 10:23:55;;;;;;;10.83;9.87;;;;;;;16.12;100.00;100640.84;5099173;28;20176;-71
2023/05/08 10:26:29;;;;;;;11.23;10.23;;;;;;;16.04;100.00;100646.56;5105442;28;20191;-71
2023/05/08 10:28:58;;;;;;;10.50;9.50;;;;;;;15.82;100.00;100632.47;5088042;28;20201;-73
2023/05/08 10:31:26;;;;;;;12.40;11.27;;;;;;;16.06;100.00;100630.88;5104184;27;20228;-72
2023/05/08 10:33:55;;;;;;;11.30;10.10;;;;;;;16.17;100.00;100633.56;5104555;28;20179;-72
2023/05/08 10:36:22;;;;;;;10.90;9.80;;;;;;;16.52;100.00;100632.03;5099264;28;20263;-71
2023/05/08 10:38:49;;;;;;;10.80;9.70;;;;;;;16.44;100.00;100635.16;5097431;28;20534;-71
2023/05/08 10:41:14;;;;;;;10.80;9.73;;;;;;;16.14;100.00;100645.00;5069775;28;20611;-71
2023/05/08 10:43:42;;;;;;;12.57;11.23;;;;;;;16.06;100.00;100636.94;5090160;28;20246;-72
2023/05/08 10:46:20;;;;;;;12.83;11.63;;;;;;;15.91;100.00;100638.78;5085593;28;20207;-70
2023/05/08 10:49:05;;;;;;;12.07;10.83;;;;;;;15.81;100.00;100629.94;5106088;28;20179;-71
2023/05/08 10:51:54;;;;;;;11.80;10.67;;;;;;;15.97;100.00;100632.34;5093158;28;20230;-71
2023/05/08 10:55:05;;;;;;;11.80;10.80;;;;;;;16.04;100.00;100633.59;5078683;28;20208;-72
2023/05/08 10:57:30;;;;;;;12.03;11.03;;;;;;;16.22;100.00;100628.06;5103773;28;20227;-73
2023/05/08 10:59:56;;;;;;;12.30;11.27;;;;;;;16.12;100.00;100623.53;5098511;28;20334;-72
2023/05/08 11:02:30;;;;;;;12.63;11.53;;;;;;;15.93;100.00;100625.72;5025440;28;20735;-72
2023/05/08 11:05:14;;;;;;;12.57;11.47;;;;;;;15.86;100.00;100627.91;5094486;28;20176;-71
2023/05/08 11:07:53;;;;;;;11.83;10.90;;;;;;;15.92;100.00;100629.25;5089969;28;20307;-71
2023/05/08 11:10:19;;;;;;;13.13;11.80;;;;;;;15.86;100.00;100622.72;5082116;27;20202;-73
2023/05/08 11:12:47;;;;;;;12.03;10.83;;;;;;;16.13;100.00;100621.75;5122230;27;20191;-72